King And Queen Court House, Virginia
Current Conditions -  °F | °C
As of 1:15 PM on Tuesday 21 Oct 2014 (Local Time) from KFYJ Reporting Station
Clear Clear  
Wind Chill: 73°   Ceiling: Unl
Heat Index: 73°   Visibility: 10mi
Dew Point: 47°   Wind: 3mph
Humidity: 39%   Direction: 230°SW
Pressure: 29.85"   Gusts: NA
Location:  37.67°N, 76.88°W
Report Text: KFYJ 211715Z AUTO 23003KT 10SM CLR 23/08 A2985 RMK AO2 T02270081
Loading
Personal Weather Stations






























Interactive Weather Map
Tropical Storm Tracking
New forecast layout! Learn more

10-Day Weather Forecast

Advertisements
Track Severe Weather on mobile